createdAt,value
2023-02-27T00:34:11.282Z,1.76
2023-02-27T00:36:42.940Z,1.81
2023-02-27T00:39:11.563Z,1.98
2023-02-27T00:41:42.695Z,2.18
2023-02-27T00:44:11.154Z,2.34
2023-02-27T00:46:39.870Z,2.48
2023-02-27T00:49:08.722Z,2.55
2023-02-27T00:51:37.055Z,2.59
2023-02-27T00:54:21.458Z,2.65
2023-02-27T00:56:49.963Z,2.72
2023-02-27T00:59:19.550Z,2.78
2023-02-27T01:01:48.619Z,2.78
2023-02-27T01:04:16.948Z,2.79
2023-02-27T01:06:45.124Z,2.85
2023-02-27T01:09:15.419Z,2.88
2023-02-27T01:11:43.866Z,2.90
2023-02-27T01:14:12.379Z,2.89
2023-02-27T01:16:41.750Z,2.92
2023-02-27T01:19:14.004Z,2.94
2023-02-27T01:21:42.421Z,2.96
2023-02-27T01:24:11.878Z,2.98
2023-02-27T01:26:40.515Z,3.00
2023-02-27T01:29:09.158Z,2.98
2023-02-27T01:31:37.670Z,2.93
2023-02-27T01:34:06.084Z,2.91
2023-02-27T01:36:34.941Z,2.94
2023-02-27T01:39:03.506Z,2.98
2023-02-27T01:41:32.278Z,3.00
2023-02-27T01:44:10.167Z,3.01
2023-02-27T01:46:39.279Z,2.97
2023-02-27T01:49:16.345Z,3.04
2023-02-27T01:51:53.826Z,3.04
2023-02-27T01:54:26.211Z,2.99
2023-02-27T01:56:55.030Z,2.96
2023-02-27T01:59:26.687Z,2.95
2023-02-27T02:01:56.946Z,2.93
2023-02-27T02:04:32.316Z,2.94
2023-02-27T02:07:14.013Z,2.92
2023-02-27T02:09:59.277Z,2.83
2023-02-27T02:12:31.038Z,2.77
2023-02-27T02:14:59.629Z,2.81
2023-02-27T02:17:31.071Z,2.82
2023-02-27T02:20:21.279Z,2.74
2023-02-27T02:23:09.880Z,2.60
2023-02-27T02:26:07.844Z,2.59
2023-02-27T02:29:01.061Z,2.55
2023-02-27T02:31:52.315Z,2.59
2023-02-27T02:35:03.122Z,2.57
2023-02-27T02:38:03.319Z,2.51
2023-02-27T02:40:47.238Z,2.53
2023-02-27T02:43:30.902Z,2.62
2023-02-27T02:46:08.646Z,2.65
2023-02-27T02:48:49.134Z,2.66
2023-02-27T02:51:30.779Z,2.62
2023-02-27T02:54:25.552Z,2.62
2023-02-27T02:57:15.676Z,2.59
2023-02-27T02:59:58.302Z,2.57
2023-02-27T03:02:31.534Z,2.56
2023-02-27T03:05:14.654Z,2.57
2023-02-27T03:07:49.547Z,2.51
2023-02-27T03:10:22.727Z,2.59
2023-02-27T03:13:17.477Z,2.60
2023-02-27T03:15:51.497Z,2.52
2023-02-27T03:18:26.555Z,2.57
2023-02-27T03:21:01.864Z,2.62
2023-02-27T03:23:37.709Z,2.69
2023-02-27T03:26:07.655Z,2.74
2023-02-27T03:28:41.388Z,2.78
2023-02-27T03:31:32.423Z,2.79
2023-02-27T03:34:11.934Z,2.76
2023-02-27T03:37:01.269Z,2.75
2023-02-27T03:39:50.624Z,2.74
2023-02-27T03:42:34.827Z,2.72
2023-02-27T03:45:42.084Z,2.70
2023-02-27T03:48:11.179Z,2.61
2023-02-27T03:50:39.908Z,2.75
2023-02-27T03:53:19.004Z,2.86
2023-02-27T03:55:49.472Z,2.82
2023-02-27T03:58:18.039Z,2.86
2023-02-27T04:00:46.774Z,2.88
2023-02-27T04:03:16.579Z,2.94
2023-02-27T04:05:45.369Z,2.94
2023-02-27T04:08:14.678Z,2.92
2023-02-27T04:10:51.726Z,2.91
2023-02-27T04:13:27.738Z,2.85
2023-02-27T04:16:36.447Z,2.88
2023-02-27T04:19:23.593Z,2.80
2023-02-27T04:21:54.804Z,2.76
2023-02-27T04:24:52.509Z,2.78
2023-02-27T04:27:28.057Z,2.73
2023-02-27T04:30:02.248Z,2.82
2023-02-27T04:32:43.609Z,2.83
2023-02-27T04:35:45.490Z,2.79
2023-02-27T04:38:36.472Z,2.68
2023-02-27T04:41:12.331Z,2.71
2023-02-27T04:43:45.155Z,2.80
2023-02-27T04:46:18.846Z,2.81
2023-02-27T04:49:15.840Z,2.79
2023-02-27T04:51:58.760Z,2.67
2023-02-27T04:54:33.492Z,2.67
2023-02-27T04:57:07.234Z,2.68
2023-02-27T04:59:41.667Z,2.68
2023-02-27T05:02:16.483Z,2.62
2023-02-27T05:04:46.555Z,2.59
2023-02-27T05:07:19.567Z,2.66
2023-02-27T05:10:03.736Z,2.74
2023-02-27T05:12:52.597Z,2.77
2023-02-27T05:15:48.295Z,2.75
2023-02-27T05:18:20.389Z,2.74
2023-02-27T05:21:02.402Z,2.83
2023-02-27T05:24:02.138Z,2.86
2023-02-27T05:26:55.656Z,2.87
2023-02-27T05:29:23.796Z,2.88
2023-02-27T05:32:15.996Z,2.93
2023-02-27T05:34:52.448Z,2.89
2023-02-27T05:37:28.949Z,2.96
2023-02-27T05:40:00.258Z,3.04
2023-02-27T05:42:38.962Z,3.09
2023-02-27T05:45:20.307Z,3.08
2023-02-27T05:48:05.006Z,3.05
2023-02-27T05:50:36.097Z,3.08
2023-02-27T05:53:11.682Z,3.13
2023-02-27T05:55:47.334Z,3.15
2023-02-27T05:58:33.865Z,3.17
2023-02-27T06:01:07.965Z,3.15
2023-02-27T06:03:40.368Z,3.24
2023-02-27T06:06:14.897Z,3.34
2023-02-27T06:08:44.844Z,3.35
2023-02-27T06:11:13.758Z,3.39
2023-02-27T06:13:42.388Z,3.40
2023-02-27T06:16:13.128Z,3.47
2023-02-27T06:18:42.703Z,3.48
2023-02-27T06:21:13.761Z,3.53
2023-02-27T06:23:42.725Z,3.52
2023-02-27T06:26:14.448Z,3.52
2023-02-27T06:28:42.826Z,3.54
2023-02-27T06:31:11.334Z,3.59
2023-02-27T06:33:39.833Z,3.62
2023-02-27T06:36:08.301Z,3.61
2023-02-27T06:38:37.682Z,3.61
2023-02-27T06:41:06.260Z,3.63
2023-02-27T06:43:37.308Z,3.68
2023-02-27T06:46:06.092Z,3.70
2023-02-27T06:48:38.005Z,3.68
2023-02-27T06:51:06.500Z,3.68
2023-02-27T06:53:35.036Z,3.73
2023-02-27T06:56:03.456Z,3.79
2023-02-27T06:58:31.621Z,3.84
2023-02-27T07:01:01.317Z,3.83
2023-02-27T07:03:32.590Z,3.84
2023-02-27T07:07:32.545Z,3.87
2023-02-27T07:09:23.445Z,3.83
2023-02-27T07:11:51.815Z,3.88
2023-02-27T07:14:20.293Z,3.89
2023-02-27T07:16:51.236Z,3.92
2023-02-27T07:19:19.735Z,3.93
2023-02-27T07:21:48.292Z,4.03
2023-02-27T07:24:17.262Z,4.09
2023-02-27T07:26:46.764Z,4.12
2023-02-27T07:29:18.049Z,4.12
2023-02-27T07:31:46.214Z,4.12
2023-02-27T07:34:16.143Z,4.18
2023-02-27T07:36:46.646Z,4.23
2023-02-27T07:39:15.443Z,4.23
2023-02-27T07:41:47.232Z,4.22
2023-02-27T07:44:15.729Z,4.21
2023-02-27T07:46:45.082Z,4.28
2023-02-27T07:49:13.567Z,4.32
2023-02-27T07:51:41.755Z,4.35
2023-02-27T07:54:10.965Z,4.36
2023-02-27T07:56:42.225Z,4.38
2023-02-27T07:59:11.389Z,4.41
2023-02-27T08:01:42.940Z,4.49
2023-02-27T08:04:11.580Z,4.56
2023-02-27T08:06:43.860Z,4.59
2023-02-27T08:09:12.544Z,4.60
2023-02-27T08:11:41.896Z,4.62
2023-02-27T08:14:10.687Z,4.64
2023-02-27T08:16:40.880Z,4.74
2023-02-27T08:19:09.984Z,4.79
2023-02-27T08:21:41.460Z,4.81
2023-02-27T08:24:09.881Z,4.82
2023-02-27T08:26:38.450Z,4.85
2023-02-27T08:29:07.960Z,4.94
2023-02-27T08:31:36.576Z,5.02
2023-02-27T08:34:10.428Z,5.04
2023-02-27T08:36:40.331Z,5.03
2023-02-27T08:39:10.075Z,5.04
2023-02-27T08:41:39.554Z,5.01
2023-02-27T08:44:08.030Z,5.09
2023-02-27T08:46:36.551Z,5.21
2023-02-27T08:49:05.660Z,5.27
2023-02-27T08:51:36.929Z,5.32
2023-02-27T08:54:05.714Z,5.39
2023-02-27T08:56:35.277Z,5.45
2023-02-27T08:59:03.821Z,5.51
2023-02-27T09:01:36.698Z,5.60
2023-02-27T09:04:09.965Z,5.66
2023-02-27T09:06:38.964Z,5.71
2023-02-27T09:09:07.523Z,5.78
2023-02-27T09:11:38.232Z,5.86
2023-02-27T09:14:07.985Z,5.89
2023-02-27T09:16:37.436Z,5.89
2023-02-27T09:19:07.399Z,5.93
2023-02-27T09:21:37.657Z,6.05
2023-02-27T09:24:19.095Z,6.15
2023-02-27T09:26:50.427Z,6.18
2023-02-27T09:29:19.141Z,6.24
2023-02-27T09:31:47.998Z,6.32
2023-02-27T09:34:19.677Z,6.39
2023-02-27T09:36:47.728Z,6.38
2023-02-27T09:39:16.304Z,6.41
2023-02-27T09:41:56.058Z,6.43
2023-02-27T09:44:47.413Z,6.43
2023-02-27T09:47:25.486Z,6.39
2023-02-27T09:50:05.406Z,6.48
2023-02-27T09:52:38.164Z,6.56
2023-02-27T09:55:19.633Z,6.62
2023-02-27T09:57:52.386Z,6.68
2023-02-27T10:00:36.960Z,6.71
2023-02-27T10:03:32.902Z,6.78
2023-02-27T10:06:25.682Z,6.80
2023-02-27T10:09:33.186Z,6.91
2023-02-27T10:12:20.727Z,7.01
2023-02-27T10:15:08.245Z,7.15
2023-02-27T10:17:42.770Z,7.24
2023-02-27T10:20:26.391Z,7.38
2023-02-27T10:22:57.693Z,7.42
2023-02-27T10:25:32.178Z,7.51
2023-02-27T10:28:16.392Z,7.67
2023-02-27T10:30:57.100Z,7.77
2023-02-27T10:33:40.474Z,7.84
2023-02-27T10:36:18.070Z,7.87
2023-02-27T10:39:18.185Z,7.76
2023-02-27T10:41:47.883Z,7.54
2023-02-27T10:44:20.801Z,7.55
2023-02-27T10:46:51.766Z,7.40
2023-02-27T10:49:22.473Z,7.31
2023-02-27T10:52:11.385Z,7.26
2023-02-27T10:54:42.225Z,7.13
2023-02-27T10:57:33.311Z,7.16
2023-02-27T11:00:07.233Z,7.12
2023-02-27T11:02:41.159Z,7.10
2023-02-27T11:05:30.834Z,6.99
2023-02-27T11:08:26.879Z,6.75
2023-02-27T11:10:57.088Z,6.66
2023-02-27T11:13:28.325Z,6.67
2023-02-27T11:16:14.286Z,6.64
2023-02-27T11:18:45.179Z,6.57
2023-02-27T11:21:28.351Z,6.57
2023-02-27T11:23:59.257Z,6.63
2023-02-27T11:26:31.383Z,6.75
2023-02-27T11:29:07.430Z,6.78
2023-02-27T11:31:37.490Z,6.93
2023-02-27T11:34:08.607Z,7.30
2023-02-27T11:36:46.689Z,7.78
2023-02-27T11:39:35.643Z,8.90
2023-02-27T11:42:23.242Z,10.30
2023-02-27T11:45:00.016Z,12.91
2023-02-27T11:47:36.127Z,15.03
2023-02-27T11:50:35.338Z,15.11
2023-02-27T11:53:27.995Z,15.59
2023-02-27T11:55:59.705Z,16.18
2023-02-27T11:58:35.806Z,15.38
2023-02-27T12:01:09.365Z,14.20
2023-02-27T12:04:05.063Z,13.40
2023-02-27T12:07:21.607Z,12.66
2023-02-27T12:10:09.475Z,11.69
2023-02-27T12:12:45.232Z,11.19
2023-02-27T12:15:13.654Z,10.69
2023-02-27T12:17:50.565Z,10.42
2023-02-27T12:20:59.909Z,10.15
2023-02-27T12:23:39.142Z,11.74
2023-02-27T12:26:15.216Z,14.51
2023-02-27T12:28:58.880Z,16.96
2023-02-27T12:31:36.008Z,17.40
2023-02-27T12:34:42.549Z,16.68
2023-02-27T12:37:21.261Z,15.62
2023-02-27T12:39:53.488Z,14.82
2023-02-27T12:42:45.240Z,13.91
2023-02-27T12:45:16.281Z,12.91
2023-02-27T12:47:52.070Z,12.24
2023-02-27T12:50:23.600Z,11.64
2023-02-27T12:53:07.237Z,11.08
2023-02-27T12:55:43.884Z,10.47
2023-02-27T12:58:35.696Z,10.17
2023-02-27T13:01:39.416Z,9.69
2023-02-27T13:04:25.355Z,9.33
2023-02-27T13:07:20.643Z,9.05
2023-02-27T13:09:57.581Z,8.86
2023-02-27T13:12:47.343Z,8.84
2023-02-27T13:15:20.113Z,8.79
2023-02-27T13:18:01.924Z,8.83
2023-02-27T13:20:57.192Z,8.68
2023-02-27T13:23:48.853Z,8.78
2023-02-27T13:26:30.477Z,9.07
2023-02-27T13:29:01.324Z,9.39
2023-02-27T13:31:46.769Z,9.74
2023-02-27T13:34:23.486Z,12.97
2023-02-27T13:37:01.829Z,12.34
2023-02-27T13:39:46.081Z,12.07
2023-02-27T13:42:33.567Z,11.99
2023-02-27T13:45:04.168Z,11.63
2023-02-27T13:47:50.106Z,11.44
2023-02-27T13:50:18.299Z,11.45
2023-02-27T13:52:48.043Z,11.67
2023-02-27T13:55:38.096Z,12.06
2023-02-27T13:58:14.862Z,12.20
2023-02-27T14:00:45.267Z,12.92
2023-02-27T14:03:22.272Z,13.92
2023-02-27T14:05:53.933Z,13.91
2023-02-27T14:08:47.524Z,13.22
2023-02-27T14:11:18.169Z,13.00
2023-02-27T14:13:50.506Z,12.80
2023-02-27T14:16:40.599Z,12.67
2023-02-27T14:19:27.503Z,12.69
2023-02-27T14:22:31.801Z,12.69
2023-02-27T14:25:20.605Z,12.19
2023-02-27T14:27:56.503Z,11.56
2023-02-27T14:30:40.979Z,11.13
2023-02-27T14:33:33.290Z,10.81
2023-02-27T14:36:20.419Z,10.52
2023-02-27T14:38:59.883Z,10.38
2023-02-27T14:41:49.868Z,10.24
2023-02-27T14:44:25.038Z,10.01
2023-02-27T14:46:55.835Z,10.03
2023-02-27T14:49:34.143Z,9.93
2023-02-27T14:52:22.683Z,9.64
2023-02-27T14:54:52.123Z,9.41
2023-02-27T14:57:27.085Z,9.38
2023-02-27T14:59:56.172Z,9.14
2023-02-27T15:02:35.009Z,8.97
2023-02-27T15:05:03.920Z,8.81
2023-02-27T15:07:35.881Z,8.75
2023-02-27T15:10:12.378Z,8.54
2023-02-27T15:12:40.966Z,8.36
2023-02-27T15:15:16.836Z,8.20
2023-02-27T15:17:48.859Z,8.10
2023-02-27T15:20:30.515Z,8.00
2023-02-27T15:23:01.983Z,7.84
2023-02-27T15:25:39.230Z,7.75
2023-02-27T15:28:24.232Z,7.66
2023-02-27T15:30:55.641Z,7.54
2023-02-27T15:33:31.103Z,7.54
2023-02-27T15:36:03.025Z,7.55
2023-02-27T15:38:38.480Z,7.57
2023-02-27T15:41:08.917Z,7.56
2023-02-27T15:43:37.627Z,7.50
2023-02-27T15:46:06.192Z,7.44
2023-02-27T15:48:34.865Z,7.39
2023-02-27T15:51:04.692Z,7.33
2023-02-27T15:53:34.395Z,7.21
2023-02-27T15:56:06.996Z,7.10
2023-02-27T15:58:47.290Z,6.99
2023-02-27T16:01:21.855Z,6.91
2023-02-27T16:03:53.398Z,6.82
2023-02-27T16:06:39.141Z,6.76
2023-02-27T16:09:21.390Z,6.62
2023-02-27T16:11:49.890Z,6.50
2023-02-27T16:14:41.335Z,6.43
2023-02-27T16:17:55.775Z,6.35
2023-02-27T16:20:48.171Z,6.23
2023-02-27T16:23:26.787Z,6.18
2023-02-27T16:26:01.799Z,6.17
2023-02-27T16:28:35.180Z,6.16
2023-02-27T16:31:08.523Z,6.14
2023-02-27T16:33:41.128Z,6.11
2023-02-27T16:36:21.850Z,6.08
2023-02-27T16:38:52.110Z,6.06
2023-02-27T16:41:22.283Z,6.06
2023-02-27T16:43:53.833Z,6.04
2023-02-27T16:46:22.927Z,6.00
2023-02-27T16:48:55.874Z,5.93
2023-02-27T16:51:27.068Z,5.90
2023-02-27T16:53:57.577Z,5.86
2023-02-27T16:56:37.796Z,5.84
2023-02-27T16:59:08.863Z,5.76
2023-02-27T17:01:37.260Z,5.73
2023-02-27T17:04:13.551Z,5.70
2023-02-27T17:06:48.088Z,5.61
2023-02-27T17:09:16.902Z,5.59
2023-02-27T17:11:46.143Z,5.57
2023-02-27T17:14:15.475Z,5.56
2023-02-27T17:16:43.779Z,5.53
2023-02-27T17:19:12.358Z,5.50
2023-02-27T17:21:41.397Z,5.44
2023-02-27T17:24:09.988Z,5.38
2023-02-27T17:26:38.346Z,5.36
2023-02-27T17:29:07.014Z,5.34
2023-02-27T17:31:36.905Z,5.33
2023-02-27T17:34:05.691Z,5.29
2023-02-27T17:36:33.915Z,5.27
2023-02-27T17:39:04.562Z,5.25
2023-02-27T17:41:33.175Z,5.22
2023-02-27T17:44:02.414Z,5.21
2023-02-27T17:46:31.967Z,5.19
2023-02-27T17:49:01.277Z,5.15
2023-02-27T17:51:31.738Z,5.13
2023-02-27T17:54:05.465Z,5.10
2023-02-27T17:56:36.806Z,5.05
2023-02-27T17:59:06.044Z,5.02
2023-02-27T18:01:38.286Z,5.00
2023-02-27T18:04:08.357Z,4.99
2023-02-27T18:06:38.162Z,4.97
2023-02-27T18:09:07.066Z,4.95
2023-02-27T18:11:39.203Z,4.94
2023-02-27T18:14:07.699Z,4.90
2023-02-27T18:16:36.981Z,4.89
2023-02-27T18:19:07.009Z,4.85
2023-02-27T18:21:36.107Z,4.82
2023-02-27T18:24:05.120Z,4.79
2023-02-27T18:26:33.613Z,4.77
2023-02-27T18:29:06.560Z,4.72
2023-02-27T18:31:39.110Z,4.67
2023-02-27T18:34:09.577Z,4.61
2023-02-27T18:36:38.807Z,4.60
2023-02-27T18:39:08.189Z,4.56
2023-02-27T18:41:39.916Z,4.55
2023-02-27T18:44:12.371Z,4.52
2023-02-27T18:46:43.966Z,4.48
2023-02-27T18:49:13.642Z,4.45
2023-02-27T18:51:44.403Z,4.42
2023-02-27T18:54:14.687Z,4.38
2023-02-27T18:56:43.611Z,4.37
2023-02-27T18:59:12.621Z,4.36
2023-02-27T19:01:41.162Z,4.34
2023-02-27T19:04:09.941Z,4.33
2023-02-27T19:06:41.194Z,4.31
2023-02-27T19:09:19.161Z,4.27
2023-02-27T19:11:48.808Z,4.21
2023-02-27T19:14:17.363Z,4.20
2023-02-27T19:16:46.836Z,4.17
2023-02-27T19:19:15.509Z,4.14
2023-02-27T19:21:44.991Z,4.11
2023-02-27T19:24:14.577Z,4.06
2023-02-27T19:26:43.052Z,4.01
2023-02-27T19:29:11.543Z,3.97
2023-02-27T19:31:40.713Z,3.95
2023-02-27T19:34:09.187Z,3.91
2023-02-27T19:36:37.487Z,3.90
2023-02-27T19:39:06.353Z,3.87
2023-02-27T19:41:37.351Z,3.85
2023-02-27T19:44:06.362Z,3.83
2023-02-27T19:46:36.195Z,3.80
2023-02-27T19:49:06.081Z,3.77
2023-02-27T19:51:34.821Z,3.73
2023-02-27T19:54:04.076Z,3.69
2023-02-27T19:56:32.607Z,3.65
2023-02-27T19:59:02.061Z,3.62
2023-02-27T20:01:35.493Z,3.58
2023-02-27T20:04:04.791Z,3.52
2023-02-27T20:06:44.341Z,3.49
2023-02-27T20:09:16.885Z,3.42
2023-02-27T20:11:53.778Z,3.39
2023-02-27T20:14:22.443Z,3.37
2023-02-27T20:16:51.041Z,3.35
2023-02-27T20:19:21.604Z,3.34
2023-02-27T20:21:51.085Z,3.31
2023-02-27T20:24:20.904Z,3.29
2023-02-27T20:26:55.516Z,3.27
2023-02-27T20:29:25.889Z,3.20
2023-02-27T20:32:15.183Z,2.98
2023-02-27T20:34:44.402Z,2.82
2023-02-27T20:37:12.980Z,2.86
2023-02-27T20:39:45.593Z,2.85
2023-02-27T20:42:15.278Z,2.83
2023-02-27T20:44:49.793Z,2.82
2023-02-27T20:47:18.296Z,2.79
2023-02-27T20:49:46.735Z,2.78
2023-02-27T20:52:15.494Z,2.77
2023-02-27T20:54:44.037Z,2.76
2023-02-27T20:57:13.026Z,2.77
2023-02-27T20:59:41.749Z,2.78
2023-02-27T21:02:13.535Z,2.77
2023-02-27T21:04:48.627Z,2.76
2023-02-27T21:07:21.608Z,2.74
2023-02-27T21:09:51.706Z,2.75
2023-02-27T21:12:20.601Z,2.75
2023-02-27T21:14:52.588Z,2.75
2023-02-27T21:17:21.656Z,2.73
2023-02-27T21:19:50.535Z,2.73
2023-02-27T21:22:18.905Z,2.77
2023-02-27T21:24:50.304Z,2.84
2023-02-27T21:27:22.145Z,2.78
2023-02-27T21:29:55.101Z,2.76
2023-02-27T21:32:24.414Z,2.74
2023-02-27T21:34:52.944Z,2.73
2023-02-27T21:37:24.226Z,2.72
2023-02-27T21:39:55.680Z,2.70
2023-02-27T21:42:24.407Z,2.67
2023-02-27T21:44:55.415Z,2.64
2023-02-27T21:47:24.010Z,2.58
2023-02-27T21:49:55.538Z,2.53
2023-02-27T21:52:24.288Z,2.49
2023-02-27T21:54:54.401Z,2.43
2023-02-27T21:57:23.378Z,2.42
2023-02-27T21:59:52.205Z,2.44
2023-02-27T22:02:20.665Z,2.39
2023-02-27T22:04:52.250Z,2.36
2023-02-27T22:07:20.744Z,2.34
2023-02-27T22:09:50.245Z,2.34
2023-02-27T22:12:19.670Z,2.34
2023-02-27T22:14:48.751Z,2.31
2023-02-27T22:17:18.390Z,2.30
2023-02-27T22:19:48.536Z,2.28
2023-02-27T22:22:17.309Z,2.26
2023-02-27T22:24:46.250Z,2.33
2023-02-27T22:27:16.837Z,2.47
2023-02-27T22:29:48.573Z,2.45
2023-02-27T22:32:17.498Z,2.44
2023-02-27T22:34:46.331Z,2.44
2023-02-27T22:37:20.037Z,2.39
2023-02-27T22:39:48.653Z,2.31
2023-02-27T22:42:17.285Z,2.26
2023-02-27T22:44:46.006Z,2.21
2023-02-27T22:47:14.750Z,2.15
2023-02-27T22:49:43.365Z,2.11
2023-02-27T22:52:11.729Z,2.08
2023-02-27T22:54:40.779Z,2.16
2023-02-27T22:57:09.330Z,2.22
2023-02-27T22:59:37.898Z,2.20
2023-02-27T23:02:06.754Z,2.19
2023-02-27T23:04:35.616Z,2.17
2023-02-27T23:07:04.369Z,2.16
2023-02-27T23:09:32.560Z,2.15
2023-02-27T23:12:03.953Z,2.12
2023-02-27T23:14:32.443Z,2.08
2023-02-27T23:17:01.055Z,2.09
2023-02-27T23:19:29.746Z,2.19
2023-02-27T23:21:58.127Z,2.18
2023-02-27T23:24:26.982Z,2.17
2023-02-27T23:26:56.477Z,2.17
2023-02-27T23:29:24.764Z,2.16
2023-02-27T23:31:56.291Z,2.13
2023-02-27T23:34:25.488Z,2.11
2023-02-27T23:36:53.923Z,2.09
2023-02-27T23:39:22.441Z,2.05
2023-02-27T23:41:51.308Z,2.09
2023-02-27T23:44:20.551Z,2.15
2023-02-27T23:46:48.836Z,2.11
2023-02-27T23:49:17.098Z,2.11
2023-02-27T23:51:46.556Z,2.08
2023-02-27T23:54:15.024Z,1.97
2023-02-27T23:56:43.826Z,1.91
2023-02-27T23:59:13.839Z,1.89
